Time;durP1;ratioP1;P1;durP2;ratioP2;P2;SDS_P1;SDS_P2;PMS_P1;PMS_P2;Temp;Humidity;BMP_temperature;BMP_pressure;BME280_temperature;BME280_humidity;BME280_pressure;Samples;Min_cycle;Max_cycle;Signal;HPM_P1;HPM_P2
2021/12/18 00:01:22;;;;;;;23.75;13.25;;;;;;;-0.04;91.44;101514.41;4943491;29;20532;-87
2021/12/18 00:03:48;;;;;;;12.68;11.38;;;;;;;-0.03;91.43;101509.28;4942018;29;20224;-87
2021/12/18 00:06:14;;;;;;;63.58;14.77;;;;;;;0.01;91.25;101502.41;4940710;29;20240;-87
2021/12/18 00:08:40;;;;;;;26.67;12.87;;;;;;;0.02;91.13;101501.56;4942356;29;20259;-86
2021/12/18 00:11:07;;;;;;;19.15;12.63;;;;;;;0.01;91.19;101502.41;4935185;29;20343;-86
2021/12/18 00:13:33;;;;;;;14.43;10.88;;;;;;;0.00;90.90;101508.44;4937124;29;21209;-87
2021/12/18 00:15:59;;;;;;;27.10;12.47;;;;;;;-0.03;91.04;101503.22;4917989;29;20319;-87
2021/12/18 00:18:25;;;;;;;31.83;12.73;;;;;;;-0.05;91.02;101510.97;4934284;29;20206;-88
2021/12/18 00:20:51;;;;;;;20.20;14.15;;;;;;;-0.08;91.23;101508.38;4937556;29;20776;-87
2021/12/18 00:23:17;;;;;;;16.97;11.00;;;;;;;-0.07;91.13;101497.16;4932153;29;20223;-87
2021/12/18 00:25:43;;;;;;;28.05;12.32;;;;;;;-0.04;91.21;101501.50;4910470;29;20202;-87
2021/12/18 00:28:10;;;;;;;26.70;13.45;;;;;;;-0.01;91.35;101501.53;4934333;29;20443;-87
2021/12/18 00:30:36;;;;;;;39.92;13.43;;;;;;;0.01;91.20;101502.41;4931329;29;20249;-87
2021/12/18 00:33:03;;;;;;;20.02;12.98;;;;;;;0.02;91.40;101496.41;4952590;28;20386;-87
2021/12/18 00:35:29;;;;;;;51.10;15.75;;;;;;;0.05;91.34;101487.81;4957825;29;20475;-86
2021/12/18 00:37:54;;;;;;;48.67;14.70;;;;;;;0.05;91.42;101482.63;4957246;29;20197;-87
2021/12/18 00:40:26;;;;;;;21.07;13.37;;;;;;;0.02;91.60;101488.63;4951804;28;20224;-87
2021/12/18 00:43:13;;;;;;;33.03;13.48;;;;;;;0.03;91.76;101490.41;4925340;29;20208;-86
2021/12/18 00:45:38;;;;;;;38.75;15.27;;;;;;;0.06;91.53;101490.41;4938888;29;20469;-88
2021/12/18 00:48:04;;;;;;;33.63;15.30;;;;;;;0.08;91.67;101478.38;4921247;29;20256;-86
2021/12/18 00:50:30;;;;;;;32.93;13.97;;;;;;;0.08;91.61;101480.97;4933269;29;20677;-87
2021/12/18 00:52:56;;;;;;;32.37;16.10;;;;;;;0.12;91.45;101480.13;4936153;29;20247;-88
2021/12/18 00:55:23;;;;;;;42.85;15.48;;;;;;;0.14;91.76;101477.56;4936296;29;20606;-88
2021/12/18 00:57:50;;;;;;;34.60;13.32;;;;;;;0.15;91.84;101485.31;4935802;29;20210;-87
2021/12/18 01:00:24;;;;;;;70.18;16.67;;;;;;;0.15;91.75;101485.31;4932148;29;20690;-88
2021/12/18 01:02:52;;;;;;;34.90;17.35;;;;;;;0.16;91.64;101492.25;4929750;29;20233;-86
2021/12/18 01:05:18;;;;;;;21.05;13.70;;;;;;;0.16;91.69;101484.50;4930372;29;20235;-86
2021/12/18 01:07:44;;;;;;;33.93;15.80;;;;;;;0.17;91.63;101483.63;4933735;29;20600;-87
2021/12/18 01:12:51;;;;;;;35.22;12.43;;;;;;;0.10;91.65;101481.81;4933522;29;20244;-87
2021/12/18 01:15:24;;;;;;;39.05;14.82;;;;;;;0.09;91.60;101474.09;4932256;29;20324;-86
2021/12/18 01:23:22;;;;;;;29.35;14.95;;;;;;;0.07;91.93;101471.47;4934146;29;20680;-87
2021/12/18 01:25:51;;;;;;;49.25;16.30;;;;;;;0.09;91.97;101466.34;4926804;29;20316;-87
2021/12/18 01:28:17;;;;;;;40.45;14.68;;;;;;;0.07;91.88;101466.31;4915090;29;20221;-86
2021/12/18 01:30:43;;;;;;;29.93;16.90;;;;;;;0.08;91.92;101465.47;4935147;29;20504;-87
2021/12/18 01:33:08;;;;;;;48.13;16.70;;;;;;;0.09;91.72;101458.56;4928595;29;20463;-87
2021/12/18 01:35:34;;;;;;;82.23;18.47;;;;;;;0.11;91.85;101462.91;4935297;29;20197;-87
2021/12/18 01:38:00;;;;;;;37.47;16.30;;;;;;;0.14;92.09;101467.25;4917914;29;20624;-86
2021/12/18 01:40:26;;;;;;;40.13;15.37;;;;;;;0.14;92.09;101473.28;4929047;29;20557;-87
2021/12/18 01:51:19;;;;;;;29.25;15.88;;;;;;;0.22;92.18;101473.34;4943403;28;20271;-87
2021/12/18 01:53:54;;;;;;;47.22;16.73;;;;;;;0.27;92.26;101473.34;4931044;29;20616;-86
2021/12/18 01:56:20;;;;;;;66.90;18.25;;;;;;;0.32;92.14;101476.84;4931997;29;20618;-87
2021/12/18 01:58:46;;;;;;;61.03;19.92;;;;;;;0.36;91.99;101478.63;4933276;29;20216;-87
2021/12/18 02:01:13;;;;;;;70.78;22.15;;;;;;;0.41;92.16;101488.16;4927688;29;21043;-88
2021/12/18 02:03:39;;;;;;;59.30;16.83;;;;;;;0.41;91.97;101480.41;4929667;29;20220;-89
2021/12/18 02:06:05;;;;;;;21.17;12.77;;;;;;;0.42;92.12;101478.66;4930378;29;20328;-87
2021/12/18 02:08:33;;;;;;;33.30;13.75;;;;;;;0.43;92.22;101477.81;4928936;29;20233;-88
2021/12/18 02:21:45;;;;;;;72.57;15.27;;;;;;;0.34;91.97;101477.75;4928793;29;20224;-87
2021/12/18 02:24:11;;;;;;;28.23;12.67;;;;;;;0.32;92.17;101476.84;4923626;29;20206;-88
2021/12/18 02:26:37;;;;;;;54.33;15.70;;;;;;;0.31;92.19;101477.72;4936860;29;20891;-86
2021/12/18 02:29:05;;;;;;;49.27;16.10;;;;;;;0.29;92.05;101472.53;4927412;29;20237;-87
2021/12/18 02:31:30;;;;;;;32.63;16.50;;;;;;;0.35;92.43;101472.59;4929380;29;20501;-86
2021/12/18 02:34:01;;;;;;;53.77;16.90;;;;;;;0.35;92.35;101471.72;4927689;29;20220;-86
2021/12/18 02:36:27;;;;;;;27.30;12.65;;;;;;;0.32;92.27;101471.69;4930689;29;21017;-88
2021/12/18 02:41:32;;;;;;;37.10;13.88;;;;;;;0.28;92.27;101470.81;4926261;29;20460;-88
2021/12/18 02:44:04;;;;;;;45.03;18.00;;;;;;;0.27;92.33;101457.84;4930544;29;20208;-85
2021/12/18 02:46:30;;;;;;;51.97;15.88;;;;;;;0.25;92.22;101462.16;4921710;29;20272;-87
2021/12/18 02:48:56;;;;;;;24.70;14.00;;;;;;;0.22;92.11;101460.41;4931682;29;20226;-87
2021/12/18 02:51:23;;;;;;;43.72;16.10;;;;;;;0.15;92.52;101464.66;4923600;29;20708;-86
2021/12/18 02:53:53;;;;;;;48.92;15.68;;;;;;;0.11;92.51;101462.03;4925908;29;20517;-87
2021/12/18 02:56:23;;;;;;;32.10;12.88;;;;;;;0.10;92.20;101458.56;4932399;29;20228;-86
2021/12/18 02:58:56;;;;;;;23.20;13.13;;;;;;;0.13;92.28;101458.59;4936097;28;20201;-86
2021/12/18 03:01:24;;;;;;;52.65;16.98;;;;;;;0.15;92.57;101458.63;4934540;29;20197;-87
2021/12/18 03:03:51;;;;;;;50.67;13.43;;;;;;;0.14;92.28;101459.50;4936156;29;20197;-86
2021/12/18 03:09:25;;;;;;;57.50;16.48;;;;;;;0.07;92.50;101465.44;4939960;29;20567;-87
2021/12/18 03:25:34;;;;;;;48.50;16.23;;;;;;;-0.06;92.75;101449.81;4935688;29;20281;-87
2021/12/18 03:28:00;;;;;;;40.97;15.38;;;;;;;-0.06;92.69;101448.97;4943937;29;20288;-85
2021/12/18 03:30:26;;;;;;;62.47;17.15;;;;;;;-0.06;92.88;101448.97;4932800;29;20209;-87
2021/12/18 03:32:52;;;;;;;36.28;13.13;;;;;;;-0.09;92.72;101454.94;4931087;29;20991;-87
2021/12/18 03:35:18;;;;;;;60.10;16.93;;;;;;;-0.07;92.79;101452.41;4931310;29;20241;-87
2021/12/18 03:37:45;;;;;;;54.13;14.30;;;;;;;-0.10;92.83;101457.53;4931410;29;20457;-87
2021/12/18 03:40:17;;;;;;;48.72;15.43;;;;;;;-0.11;93.17;101456.69;4931258;29;20256;-87
2021/12/18 03:42:43;;;;;;;39.58;14.80;;;;;;;-0.14;92.67;101455.75;4936295;29;20296;-87
2021/12/18 03:45:10;;;;;;;69.53;17.03;;;;;;;-0.15;93.07;101449.75;4934767;29;20217;-87
2021/12/18 03:47:36;;;;;;;65.60;15.40;;;;;;;-0.17;92.90;101448.84;4931480;29;20491;-87
2021/12/18 03:50:02;;;;;;;44.58;15.57;;;;;;;-0.19;93.15;101447.09;4933280;29;20748;-86
2021/12/18 03:52:28;;;;;;;52.97;13.90;;;;;;;-0.18;93.02;101448.84;4933353;29;20210;-87
2021/12/18 03:54:53;;;;;;;26.37;14.10;;;;;;;-0.14;93.03;101445.44;4934446;29;20544;-86
2021/12/18 03:57:19;;;;;;;31.87;12.60;;;;;;;-0.11;93.16;101451.50;4934522;29;20268;-87
2021/12/18 03:59:44;;;;;;;47.90;15.30;;;;;;;-0.11;93.05;101448.03;4935781;29;20292;-87
2021/12/18 04:02:10;;;;;;;25.17;13.90;;;;;;;-0.10;92.98;101435.16;4946166;28;20217;-87
2021/12/18 04:04:35;;;;;;;44.23;14.70;;;;;;;-0.08;93.08;101438.63;4956910;29;20196;-87
2021/12/18 04:07:01;;;;;;;48.47;19.83;;;;;;;-0.04;92.89;101434.34;4948395;29;20282;-88
2021/12/18 04:09:31;;;;;;;48.30;16.23;;;;;;;-0.03;93.11;101438.66;4949900;29;20303;-86
2021/12/18 04:11:57;;;;;;;57.15;14.75;;;;;;;-0.02;92.81;101436.09;4954733;28;20519;-86
2021/12/18 04:14:22;;;;;;;53.13;15.48;;;;;;;-0.03;92.87;101434.38;4944682;29;20241;-87
2021/12/18 04:16:48;;;;;;;67.47;17.77;;;;;;;-0.04;92.85;101431.75;4923934;29;20209;-87
2021/12/18 04:19:13;;;;;;;111.13;18.87;;;;;;;-0.07;92.69;101439.47;4934260;29;20621;-87
2021/12/18 04:21:39;;;;;;;45.20;15.97;;;;;;;-0.07;92.86;101436.91;4933353;29;20244;-87
2021/12/18 04:24:05;;;;;;;66.80;15.33;;;;;;;-0.07;92.76;101444.66;4928111;29;20529;-87
2021/12/18 04:26:32;;;;;;;30.37;12.37;;;;;;;-0.08;92.92;101442.91;4930616;29;20459;-88
2021/12/18 04:28:58;;;;;;;39.65;16.17;;;;;;;-0.10;93.06;101450.66;4937480;29;20543;-86
2021/12/18 04:31:24;;;;;;;65.18;14.77;;;;;;;-0.13;93.00;101444.59;4928020;29;20753;-86
2021/12/18 04:33:49;;;;;;;59.83;16.20;;;;;;;-0.13;93.05;101437.72;4925863;29;20791;-86
2021/12/18 04:36:15;;;;;;;47.73;14.10;;;;;;;-0.10;93.08;101445.50;4929184;29;20201;-85
2021/12/18 04:38:41;;;;;;;49.70;14.37;;;;;;;-0.16;93.13;101448.03;4935700;29;20715;-85
2021/12/18 04:41:09;;;;;;;44.97;14.33;;;;;;;-0.20;92.76;101454.00;4936952;29;20209;-85
2021/12/18 04:43:34;;;;;;;49.83;14.55;;;;;;;-0.23;92.79;101452.25;4927267;29;20891;-85
2021/12/18 04:46:00;;;;;;;70.50;16.10;;;;;;;-0.25;93.20;101453.94;4938490;29;20587;-85
2021/12/18 04:48:25;;;;;;;53.03;12.20;;;;;;;-0.26;92.97;101449.63;4931750;29;20696;-85
2021/12/18 04:50:51;;;;;;;36.80;13.60;;;;;;;-0.34;92.89;101453.84;4928349;29;20212;-84
2021/12/18 04:53:16;;;;;;;44.10;13.00;;;;;;;-0.37;93.27;101451.25;4928432;29;20236;-84
2021/12/18 04:55:41;;;;;;;42.50;12.97;;;;;;;-0.45;92.59;101446.00;4933057;29;20209;-85
2021/12/18 04:58:07;;;;;;;58.93;12.30;;;;;;;-0.47;92.68;101455.41;4925916;29;20616;-84
2021/12/18 05:00:41;;;;;;;27.53;11.70;;;;;;;-0.47;92.94;101442.50;4928603;29;20580;-85
2021/12/18 05:03:11;;;;;;;32.38;13.25;;;;;;;-0.49;93.00;101453.66;4930191;29;20209;-84
2021/12/18 05:05:37;;;;;;;32.65;10.02;;;;;;;-0.58;92.62;101454.44;4926086;29;20233;-85
2021/12/18 05:08:03;;;;;;;40.00;11.70;;;;;;;-0.63;93.02;101450.94;4937052;29;20244;-86
2021/12/18 05:10:29;;;;;;;49.47;13.75;;;;;;;-0.67;92.98;101444.88;4934212;28;20908;-84
2021/12/18 05:12:55;;;;;;;68.10;14.70;;;;;;;-0.71;92.93;101445.69;4931937;29;20224;-85
2021/12/18 05:15:20;;;;;;;34.47;11.97;;;;;;;-0.74;93.22;101447.38;4928113;29;20559;-82
2021/12/18 05:17:46;;;;;;;30.47;10.90;;;;;;;-0.75;92.93;101438.75;4935990;29;20217;-85
2021/12/18 05:20:12;;;;;;;38.80;13.50;;;;;;;-0.74;93.27;101448.22;4926408;29;20228;-84
2021/12/18 05:22:37;;;;;;;61.47;16.03;;;;;;;-0.75;93.15;101446.50;4938646;29;20299;-84
2021/12/18 05:25:04;;;;;;;43.67;13.60;;;;;;;-0.74;93.32;101450.81;4929992;29;20559;-83
2021/12/18 05:27:30;;;;;;;32.10;11.50;;;;;;;-0.72;93.30;101450.84;4929364;29;20803;-84
2021/12/18 05:29:55;;;;;;;54.47;14.50;;;;;;;-0.70;93.10;101455.16;4934459;29;20300;-85
2021/12/18 05:32:21;;;;;;;39.70;11.23;;;;;;;-0.69;93.40;101456.03;4934602;29;20214;-84
2021/12/18 05:34:46;;;;;;;42.60;11.37;;;;;;;-0.68;93.11;101455.16;4940424;29;20213;-85
2021/12/18 05:39:47;;;;;;;39.30;13.13;;;;;;;-0.62;93.32;101455.28;4930468;29;20209;-84
2021/12/18 05:42:13;;;;;;;31.30;11.80;;;;;;;-0.59;93.51;101457.88;4932795;29;20217;-85
2021/12/18 05:44:39;;;;;;;21.43;10.83;;;;;;;-0.57;93.23;101455.31;4919927;29;20269;-85
2021/12/18 05:47:04;;;;;;;36.67;11.98;;;;;;;-0.55;93.16;101461.34;4939293;29;20465;-84
2021/12/18 05:49:30;;;;;;;52.73;11.57;;;;;;;-0.52;93.06;101470.00;4938612;29;20256;-84
2021/12/18 05:51:56;;;;;;;31.73;10.70;;;;;;;-0.52;93.34;101461.38;4942692;29;20465;-84
2021/12/18 05:54:24;;;;;;;27.90;9.43;;;;;;;-0.50;93.36;101464.84;4945844;29;20214;-85
2021/12/18 05:56:50;;;;;;;31.95;11.25;;;;;;;-0.52;92.85;101453.63;4952852;29;20206;-84
2021/12/18 05:59:16;;;;;;;61.58;13.48;;;;;;;-0.53;93.06;101457.09;4952230;28;20264;-84
2021/12/18 06:01:42;;;;;;;43.50;16.65;;;;;;;-0.46;93.16;101459.75;4919338;29;20479;-83
2021/12/18 06:04:08;;;;;;;18.93;11.03;;;;;;;-0.46;92.99;101458.88;4935841;29;20209;-83
2021/12/18 06:06:34;;;;;;;56.63;14.00;;;;;;;-0.46;93.21;101459.75;4931212;29;20240;-84
2021/12/18 06:08:59;;;;;;;50.40;14.37;;;;;;;-0.42;93.33;101454.63;4933646;29;21340;-85
2021/12/18 06:11:27;;;;;;;63.37;15.77;;;;;;;-0.42;93.09;101458.06;4931665;28;20552;-85
2021/12/18 06:13:53;;;;;;;77.30;14.45;;;;;;;-0.41;93.23;101456.34;4930744;29;20252;-85
2021/12/18 06:16:20;;;;;;;55.03;14.30;;;;;;;-0.40;93.09;101451.22;4938395;29;20559;-85
2021/12/18 06:18:49;;;;;;;48.17;13.30;;;;;;;-0.38;93.01;101456.38;4935608;29;20288;-84
2021/12/18 06:21:16;;;;;;;78.38;14.45;;;;;;;-0.40;93.09;101451.22;4933641;29;20212;-85
2021/12/18 06:23:43;;;;;;;49.25;14.32;;;;;;;-0.39;92.99;101455.50;4930830;29;20213;-84
2021/12/18 06:26:08;;;;;;;77.65;14.25;;;;;;;-0.38;93.17;101449.50;4931882;29;20332;-84
2021/12/18 06:28:34;;;;;;;38.60;11.47;;;;;;;-0.36;92.88;101449.50;4936221;29;20503;-84
2021/12/18 06:31:01;;;;;;;54.23;14.90;;;;;;;-0.32;93.14;101457.31;4934778;28;20525;-84
2021/12/18 06:33:26;;;;;;;35.78;13.05;;;;;;;-0.30;93.13;101455.63;4944398;29;20213;-85
2021/12/18 06:35:52;;;;;;;17.37;10.77;;;;;;;-0.30;93.17;101455.63;4945466;29;20210;-85
2021/12/18 06:38:17;;;;;;;47.90;14.37;;;;;;;-0.30;92.82;101462.47;4944794;29;20659;-85
2021/12/18 06:40:43;;;;;;;65.73;12.63;;;;;;;-0.30;92.93;101452.16;4942451;29;20220;-86
2021/12/18 06:43:08;;;;;;;94.73;15.97;;;;;;;-0.39;92.53;101450.34;4950016;29;20250;-84
2021/12/18 06:45:34;;;;;;;53.27;13.40;;;;;;;-0.40;92.70;101460.69;4933019;29;20247;-85
2021/12/18 06:47:59;;;;;;;55.77;15.03;;;;;;;-0.48;92.45;101461.44;4932675;29;20234;-85
2021/12/18 06:50:25;;;;;;;24.03;10.90;;;;;;;-0.51;92.44;101465.72;4938046;29;20456;-85
2021/12/18 06:52:51;;;;;;;48.67;13.90;;;;;;;-0.53;92.80;101462.25;4937235;29;20680;-84
2021/12/18 06:55:17;;;;;;;45.07;14.03;;;;;;;-0.57;92.87;101466.47;4936237;29;20208;-85
2021/12/18 06:57:42;;;;;;;67.27;15.47;;;;;;;-0.56;92.61;101463.06;4929348;29;20453;-84
2021/12/18 07:00:12;;;;;;;55.97;15.90;;;;;;;-0.55;92.75;101466.50;4929928;29;20459;-85
2021/12/18 07:02:38;;;;;;;53.72;14.23;;;;;;;-0.55;92.89;101464.78;4930126;29;20295;-84
2021/12/18 07:05:05;;;;;;;66.72;15.80;;;;;;;-0.55;92.93;101461.34;4937381;29;20224;-85
2021/12/18 07:07:30;;;;;;;47.25;15.98;;;;;;;-0.57;92.99;101468.19;4928343;29;20237;-84
2021/12/18 07:09:55;;;;;;;63.60;15.87;;;;;;;-0.57;93.09;101474.22;4935551;29;20215;-84
2021/12/18 07:12:21;;;;;;;69.80;16.63;;;;;;;-0.53;93.07;101472.56;4919573;29;20236;-84
2021/12/18 07:14:46;;;;;;;70.47;18.70;;;;;;;-0.53;93.27;101480.31;4920321;29;20252;-84
2021/12/18 07:17:12;;;;;;;108.37;22.03;;;;;;;-0.53;92.82;101485.47;4928293;29;20217;-84
2021/12/18 07:19:37;;;;;;;68.43;17.20;;;;;;;-0.53;93.12;101470.84;4930360;29;20220;-85
2021/12/18 07:22:14;;;;;;;74.83;19.33;;;;;;;-0.52;92.98;101479.44;4933554;29;20577;-85
2021/12/18 07:24:40;;;;;;;47.85;14.52;;;;;;;-0.53;92.82;101482.91;4910829;29;20276;-84
2021/12/18 07:27:06;;;;;;;59.77;16.70;;;;;;;-0.52;93.10;101485.47;4928976;29;20331;-84
2021/12/18 07:29:31;;;;;;;73.87;24.27;;;;;;;-0.55;93.17;101480.28;4927353;29;20549;-84
2021/12/18 07:31:57;;;;;;;108.03;28.67;;;;;;;-0.41;93.09;101480.44;4931572;29;20495;-84
2021/12/18 07:34:22;;;;;;;77.10;22.90;;;;;;;-0.40;93.22;101484.78;4921583;29;20571;-85
2021/12/18 07:36:54;;;;;;;92.50;23.47;;;;;;;-0.38;93.13;101492.50;4928779;29;20225;-84
2021/12/18 07:39:20;;;;;;;92.25;18.42;;;;;;;-0.36;93.30;101488.25;4934400;29;20205;-84
2021/12/18 07:41:45;;;;;;;90.20;19.73;;;;;;;-0.35;93.10;101492.53;4933405;29;20228;-84
2021/12/18 07:44:13;;;;;;;83.17;19.07;;;;;;;-0.35;92.92;101496.03;4929340;28;20205;-83
2021/12/18 07:46:39;;;;;;;69.22;19.17;;;;;;;-0.33;93.07;101493.44;4926963;29;20299;-84
2021/12/18 07:49:06;;;;;;;33.83;13.93;;;;;;;-0.32;92.87;101490.88;4933418;29;20232;-84
2021/12/18 07:51:32;;;;;;;56.55;15.10;;;;;;;-0.30;93.21;101491.78;4929742;29;20472;-84
2021/12/18 07:53:58;;;;;;;72.90;18.40;;;;;;;-0.27;93.09;101489.22;4927288;28;20209;-84
2021/12/18 07:56:24;;;;;;;90.40;22.37;;;;;;;-0.25;93.06;101495.25;4941125;28;20464;-84
2021/12/18 07:58:51;;;;;;;69.40;21.77;;;;;;;-0.24;92.99;101496.16;4921602;29;20209;-85
2021/12/18 08:01:16;;;;;;;84.75;20.65;;;;;;;-0.24;93.03;101491.84;4918698;29;20216;-84
2021/12/18 08:03:44;;;;;;;67.70;17.70;;;;;;;-0.26;92.80;101492.66;4942008;28;20636;-84
2021/12/18 08:06:10;;;;;;;87.45;19.65;;;;;;;-0.27;92.83;101496.06;4929192;29;20236;-85
2021/12/18 08:08:36;;;;;;;72.13;19.75;;;;;;;-0.29;92.59;101493.50;4921609;29;20319;-84
2021/12/18 08:11:02;;;;;;;84.97;23.67;;;;;;;-0.27;92.84;101498.66;4920609;28;20228;-84
2021/12/18 08:13:27;;;;;;;85.27;18.83;;;;;;;-0.27;92.81;101496.97;4929586;29;20492;-84
2021/12/18 08:15:53;;;;;;;67.60;21.23;;;;;;;-0.29;92.64;101497.81;4929748;29;20518;-84
2021/12/18 08:18:19;;;;;;;33.23;14.70;;;;;;;-0.28;92.85;101508.13;4923270;29;20217;-85
2021/12/18 08:20:44;;;;;;;79.93;18.90;;;;;;;-0.26;92.91;101501.28;4932624;29;20308;-84
2021/12/18 08:23:10;;;;;;;58.47;16.77;;;;;;;-0.29;92.90;101493.50;4926255;29;20517;-84
2021/12/18 08:25:36;;;;;;;82.33;18.20;;;;;;;-0.31;92.65;101495.19;4921680;29;20248;-86
2021/12/18 08:28:03;;;;;;;72.77;16.93;;;;;;;-0.34;92.81;101490.00;4931025;29;20235;-85
2021/12/18 08:30:31;;;;;;;62.05;17.67;;;;;;;-0.36;92.85;101490.81;4927657;29;20393;-85
2021/12/18 08:32:58;;;;;;;47.53;17.73;;;;;;;-0.36;92.63;101498.56;4924868;29;20576;-84
2021/12/18 08:35:25;;;;;;;49.45;17.83;;;;;;;-0.35;92.61;101493.44;4923403;29;20189;-85
2021/12/18 08:37:52;;;;;;;56.97;18.77;;;;;;;-0.37;92.97;101487.38;4929371;29;20755;-85
2021/12/18 08:40:18;;;;;;;69.82;17.27;;;;;;;-0.40;93.07;101487.34;4923505;28;20217;-84
2021/12/18 08:42:44;;;;;;;49.70;16.42;;;;;;;-0.34;93.04;101491.72;4932272;29;20224;-85
2021/12/18 08:45:10;;;;;;;69.87;17.07;;;;;;;-0.30;93.09;101486.63;4929760;29;20214;-85
2021/12/18 08:47:36;;;;;;;75.78;16.52;;;;;;;-0.29;92.99;101493.50;4927360;29;20229;-85
2021/12/18 08:50:02;;;;;;;25.60;11.87;;;;;;;-0.27;92.92;101491.81;4928682;29;20232;-86
2021/12/18 08:52:27;;;;;;;33.05;14.30;;;;;;;-0.23;93.04;101482.38;4931807;29;20300;-85
2021/12/18 08:54:53;;;;;;;36.13;12.93;;;;;;;-0.24;92.66;101486.69;4927969;28;20769;-84
2021/12/18 08:57:18;;;;;;;42.80;12.97;;;;;;;-0.23;92.74;101483.22;4932395;29;20209;-84
2021/12/18 08:59:44;;;;;;;35.30;13.17;;;;;;;-0.18;92.63;101480.69;4935582;29;20213;-85
2021/12/18 09:02:10;;;;;;;65.67;17.63;;;;;;;-0.18;92.66;101479.84;4931421;29;20615;-85
2021/12/18 09:04:37;;;;;;;55.28;17.67;;;;;;;-0.19;92.67;101478.09;4931063;29;20219;-85
2021/12/18 09:07:04;;;;;;;35.53;15.73;;;;;;;-0.18;92.71;101475.53;4930075;29;20287;-86
2021/12/18 09:09:30;;;;;;;43.13;15.20;;;;;;;-0.18;92.50;101479.84;4946571;29;20229;-85
2021/12/18 09:11:55;;;;;;;67.20;17.17;;;;;;;-0.18;92.49;101474.69;4923810;29;20244;-86
2021/12/18 09:14:21;;;;;;;38.23;14.13;;;;;;;-0.18;92.54;101477.25;4951524;29;20249;-85
2021/12/18 09:16:46;;;;;;;44.97;15.27;;;;;;;-0.13;92.62;101478.19;4933362;29;20217;-85
2021/12/18 09:19:13;;;;;;;52.80;18.53;;;;;;;-0.09;92.86;101474.75;4935056;29;20792;-84
2021/12/18 09:21:38;;;;;;;36.38;14.15;;;;;;;-0.06;92.68;101475.66;4923695;29;20795;-84
2021/12/18 09:24:07;;;;;;;42.97;15.83;;;;;;;-0.06;92.50;101474.78;4919454;29;20242;-85
2021/12/18 09:26:32;;;;;;;54.95;18.13;;;;;;;-0.03;92.59;101473.13;4934145;29;20709;-85
2021/12/18 09:28:58;;;;;;;40.30;15.90;;;;;;;-0.02;92.52;101479.16;4908123;29;20240;-85
2021/12/18 09:31:25;;;;;;;35.90;15.70;;;;;;;0.04;92.52;101478.34;4933222;29;20774;-85
2021/12/18 09:33:51;;;;;;;43.55;16.52;;;;;;;0.09;92.71;101474.09;4937565;29;20213;-86
2021/12/18 09:36:24;;;;;;;39.90;13.60;;;;;;;0.14;93.03;101475.84;4936328;29;20284;-85
2021/12/18 09:38:50;;;;;;;24.20;15.32;;;;;;;0.20;92.70;101468.16;4910511;29;20637;-83
2021/12/18 09:41:15;;;;;;;36.13;15.40;;;;;;;0.28;92.67;101472.53;4926804;29;20427;-85
2021/12/18 09:43:41;;;;;;;41.30;15.30;;;;;;;0.29;92.51;101475.09;4928810;29;20841;-83
2021/12/18 09:46:13;;;;;;;40.88;15.50;;;;;;;0.35;92.50;101471.72;4936005;28;20214;-83
2021/12/18 09:48:43;;;;;;;48.03;17.58;;;;;;;0.37;92.43;101465.69;4929209;29;20312;-83
2021/12/18 09:51:20;;;;;;;49.53;16.48;;;;;;;0.41;92.18;101471.78;4924025;29;20690;-84
2021/12/18 09:53:45;;;;;;;55.42;17.67;;;;;;;0.43;92.37;101468.34;4932306;29;20369;-84
2021/12/18 09:56:11;;;;;;;44.90;15.97;;;;;;;0.45;92.20;101468.34;4931918;29;20299;-83
2021/12/18 09:58:36;;;;;;;43.50;16.13;;;;;;;0.43;92.02;101465.75;4933389;29;20694;-83
2021/12/18 10:01:02;;;;;;;43.00;16.80;;;;;;;0.43;92.11;101454.53;4933087;29;20206;-83
2021/12/18 10:03:54;;;;;;;36.08;15.70;;;;;;;0.42;92.13;101455.41;4929725;29;20678;-83
2021/12/18 10:06:40;;;;;;;87.72;18.80;;;;;;;0.42;92.09;101450.22;4929634;28;20197;-83
2021/12/18 10:09:07;;;;;;;26.52;13.63;;;;;;;0.42;92.28;101452.81;4923307;29;20261;-84
2021/12/18 10:11:43;;;;;;;30.48;15.68;;;;;;;0.44;92.32;101444.22;4923577;28;20216;-83
2021/12/18 10:14:08;;;;;;;40.05;19.42;;;;;;;0.50;92.36;101448.56;4931198;29;20255;-83
2021/12/18 10:16:43;;;;;;;24.17;15.03;;;;;;;0.55;92.29;101433.94;4915210;29;20212;-82
2021/12/18 10:19:24;;;;;;;28.92;15.38;;;;;;;0.61;92.33;101433.97;4928395;29;20351;-83
2021/12/18 10:22:05;;;;;;;31.98;15.75;;;;;;;0.68;92.30;101428.88;4924573;29;20276;-84
2021/12/18 10:24:32;;;;;;;53.63;17.00;;;;;;;0.71;92.32;101429.75;4929688;29;20213;-84
2021/12/18 10:26:58;;;;;;;33.70;17.05;;;;;;;0.71;92.04;101428.88;4934344;29;20217;-82
2021/12/18 10:29:34;;;;;;;42.00;16.40;;;;;;;0.73;92.17;101427.16;4924529;29;20264;-84
2021/12/18 10:32:07;;;;;;;50.17;18.00;;;;;;;0.75;92.21;101425.44;4932212;29;20483;-83
2021/12/18 10:34:39;;;;;;;39.45;17.45;;;;;;;0.74;91.96;101423.72;4929044;29;20573;-83
2021/12/18 10:37:31;;;;;;;29.17;15.90;;;;;;;0.73;92.14;101416.81;4935294;29;20233;-83
2021/12/18 10:40:03;;;;;;;33.50;16.23;;;;;;;0.73;91.94;101415.09;4922205;29;20205;-83
2021/12/18 10:42:33;;;;;;;51.92;17.13;;;;;;;0.73;91.81;101415.09;4926837;29;20275;-83
2021/12/18 10:45:10;;;;;;;38.97;16.60;;;;;;;0.74;91.82;101410.78;4922970;29;20206;-83
2021/12/18 10:48:03;;;;;;;20.60;14.52;;;;;;;0.75;91.92;101417.69;4920990;29;20673;-83
2021/12/18 10:50:49;;;;;;;20.10;14.00;;;;;;;0.79;91.87;101407.38;4931288;29;20228;-83
2021/12/18 10:53:19;;;;;;;42.40;17.75;;;;;;;0.86;92.13;101406.56;4924301;29;20221;-82
2021/12/18 10:55:46;;;;;;;28.27;17.02;;;;;;;0.91;91.87;101409.16;4919022;29;20674;-83
2021/12/18 10:58:17;;;;;;;38.00;15.88;;;;;;;0.92;91.85;101403.13;4930517;29;20260;-83
2021/12/18 11:00:58;;;;;;;52.03;19.70;;;;;;;0.91;91.79;101395.34;4917660;29;20858;-83
2021/12/18 11:03:48;;;;;;;35.40;15.95;;;;;;;0.89;91.65;101395.34;4926995;29;20248;-83
2021/12/18 11:06:20;;;;;;;33.30;15.80;;;;;;;0.86;91.53;101390.16;4916132;29;20232;-83
2021/12/18 11:09:04;;;;;;;36.65;18.75;;;;;;;0.86;91.82;101392.72;4918782;29;21167;-84
2021/12/18 11:14:05;;;;;;;40.90;20.13;;;;;;;0.84;91.72;101382.41;4938344;28;20875;-84
2021/12/18 11:16:35;;;;;;;38.67;17.95;;;;;;;0.83;91.80;101380.66;4916183;29;20691;-83
2021/12/18 11:19:04;;;;;;;37.90;18.15;;;;;;;0.86;91.88;101379.81;4923972;28;20200;-84
2021/12/18 11:21:30;;;;;;;43.42;17.63;;;;;;;0.88;91.86;101371.19;4934076;28;20205;-84
2021/12/18 11:24:05;;;;;;;39.70;15.68;;;;;;;0.91;91.75;101377.25;4937727;28;20304;-84
2021/12/18 11:26:56;;;;;;;34.55;17.02;;;;;;;0.92;91.99;101371.19;4931720;29;21411;-83
2021/12/18 11:29:56;;;;;;;42.42;17.88;;;;;;;0.93;91.78;101376.41;4931120;29;20466;-83
2021/12/18 11:32:42;;;;;;;31.60;16.08;;;;;;;0.95;92.01;101366.94;4933528;29;20224;-82
2021/12/18 11:35:12;;;;;;;30.90;16.75;;;;;;;0.99;91.73;101358.31;4936513;28;20213;-83
2021/12/18 11:37:40;;;;;;;40.35;20.42;;;;;;;1.01;91.96;101356.59;4900869;29;20213;-83
2021/12/18 11:40:07;;;;;;;39.80;18.45;;;;;;;1.05;91.82;101347.09;4929369;29;20212;-84
2021/12/18 11:42:34;;;;;;;41.72;20.70;;;;;;;1.11;91.89;101352.31;4937333;29;20279;-84
2021/12/18 11:45:02;;;;;;;50.78;20.40;;;;;;;1.17;91.78;101354.06;4932289;28;20219;-84
2021/12/18 11:47:36;;;;;;;40.42;19.90;;;;;;;1.19;91.52;101349.72;4927691;28;20201;-84
2021/12/18 11:50:27;;;;;;;48.28;21.00;;;;;;;1.25;91.85;101355.81;4931228;29;20205;-83
2021/12/18 11:53:12;;;;;;;31.30;18.05;;;;;;;1.33;91.84;101348.06;4933275;29;20690;-83
2021/12/18 11:55:57;;;;;;;36.67;19.02;;;;;;;1.35;91.83;101348.94;4920308;29;20278;-84
2021/12/18 11:58:28;;;;;;;33.95;17.30;;;;;;;1.39;91.49;101340.31;4919513;28;20280;-84
2021/12/18 12:01:03;;;;;;;34.40;21.10;;;;;;;1.43;91.57;101339.47;4934056;28;20522;-84
2021/12/18 12:03:43;;;;;;;40.78;22.15;;;;;;;1.44;91.37;101340.31;4916189;29;20205;-84
2021/12/18 12:06:18;;;;;;;33.67;19.13;;;;;;;1.43;91.23;101336.88;4904303;29;20236;-84
2021/12/18 12:11:58;;;;;;;39.95;21.85;;;;;;;1.55;91.47;101328.25;4932910;28;20227;-84